WetterOnline ( https://www.wetteronline.de )

Wetter aktuell Naumburg

Aktuelles Wetter: Osterfeld (246m)

6-stündlich | Neueste Meldungen
Ortszeit Temperatur Wetter
Sa, 08.05. 8:00 5.8° C fast wolkenlos
Sa, 08.05. 2:00 3.0° C wolkenlos
Fr, 07.05. 20:00 8.4° C leicht bewölkt
Fr, 07.05. 14:00 8.8° C wolkig
Fr, 07.05. 8:00 5.2° C bewölkt
Fr, 07.05. 2:00 4.9° C bedeckt
Do, 06.05. 20:00 8.6° C bewölkt
Do, 06.05. 14:00 7.9° C leichter Regen
Ortszeit Temperatur Wetter
Sa, 08.05. 9:00 7.8° C wolkig
Sa, 08.05. 8:50 7.8° C wolkig
Sa, 08.05. 8:40 7.6° C wolkig
Sa, 08.05. 8:30 6.7° C leicht bewölkt
Sa, 08.05. 8:20 6.7° C leicht bewölkt
Sa, 08.05. 8:10 6.2° C fast wolkenlos
Sa, 08.05. 8:00 5.8° C fast wolkenlos
Sa, 08.05. 7:30 4.6° C wolkenlos
Sa, 08.05. 7:00 3.5° C wolkenlos
Sa, 08.05. 6:30 2.8° C wolkenlos
Sa, 08.05. 6:00 2.8° C wolkig
Ortszeit Relative Feuchte Sichtweite
Sa, 08.05. 8:00 64% 11 km
Sa, 08.05. 2:00 75% 11 km
Fr, 07.05. 20:00 59% 11 km
Fr, 07.05. 14:00 49% 11 km
Fr, 07.05. 8:00 89% 11 km
Fr, 07.05. 2:00 91% 11 km
Do, 06.05. 20:00 64% 11 km
Do, 06.05. 14:00 63% 11 km
Ortszeit Relative Feuchte Sichtweite
Sa, 08.05. 9:00 55% 11 km
Sa, 08.05. 8:50 55% -
Sa, 08.05. 8:40 59% -
Sa, 08.05. 8:30 61% 11 km
Sa, 08.05. 8:20 61% -
Sa, 08.05. 8:10 62% -
Sa, 08.05. 8:00 64% 11 km
Sa, 08.05. 7:30 66% 11 km
Sa, 08.05. 7:00 71% 11 km
Sa, 08.05. 6:30 75% 11 km
Sa, 08.05. 6:00 75% 11 km
Ortszeit Niederschlagsmenge Niederschlagsart
Sa, 08.05. 8:00 0.0 l/m2 in 12 Std. -
Sa, 08.05. 2:00 0.0 l/m2 in 6 Std. -
Fr, 07.05. 20:00 0.1 l/m2 in 12 Std. Regen
Fr, 07.05. 14:00 0.0 l/m2 in 6 Std. -
Fr, 07.05. 8:00 0.8 l/m2 in 12 Std. Regen
Fr, 07.05. 2:00 0.1 l/m2 in 6 Std. Regen
Do, 06.05. 20:00 0.1 l/m2 in 12 Std. Regen
Do, 06.05. 14:00 0.1 l/m2 in 6 Std. Regen
Ortszeit Niederschlagsmenge Niederschlagsart
Sa, 08.05. 9:00 0.0 l/m2 in 1 Std. -
Sa, 08.05. 8:50 keine Meldung -
Sa, 08.05. 8:40 keine Meldung -
Sa, 08.05. 8:30 0.0 l/m2 in 1 Std. -
Sa, 08.05. 8:20 keine Meldung -
Sa, 08.05. 8:10 keine Meldung -
Sa, 08.05. 8:00 0.0 l/m2 in 1 Std. -
Sa, 08.05. 7:30 0.0 l/m2 in 1 Std. -
Sa, 08.05. 7:00 0.0 l/m2 in 1 Std. -
Sa, 08.05. 6:30 0.0 l/m2 in 1 Std. -
Sa, 08.05. 6:00 0.0 l/m2 in 1 Std. -
Ortszeit Stärke Spitze Richtung
km/h Bft. km/h Grad Sektor
Sa, 08.05. 8:00 7 2 14 220° SW
Sa, 08.05. 2:00 7 2 25 200° S
Fr, 07.05. 20:00 13 3 43 280° W
Fr, 07.05. 14:00 17 3 44 290° W
Fr, 07.05. 8:00 14 3 25 270° W
Fr, 07.05. 2:00 4 1 25 220° SW
Do, 06.05. 20:00 11 2 32 200° S
Do, 06.05. 14:00 9 2 41 260° W
Ortszeit Stärke Spitze Richtung
km/h Bft. km/h Grad Sektor
Sa, 08.05. 9:00 15 3 22 220° SW
Sa, 08.05. 8:50 15 3 - 220° SW
Sa, 08.05. 8:40 13 3 - 210° SW
Sa, 08.05. 8:30 13 3 19 210° SW
Sa, 08.05. 8:20 13 3 - 210° SW
Sa, 08.05. 8:10 13 3 - 220° SW
Sa, 08.05. 8:00 7 2 14 220° SW
Sa, 08.05. 7:30 4 1 14 220° SW
Sa, 08.05. 7:00 6 1 13 210° SW
Sa, 08.05. 6:30 6 1 7 210° SW
Sa, 08.05. 6:00 6 1 9 190° S
Ortszeit Untergrenze Bedeckung Gattung
total tief tief mittel hoch
Sa, 08.05. 8:00 5700 m 1/8 1/8 - - -
Sa, 08.05. 2:00 - 0/8 0/8 - - -
Fr, 07.05. 20:00 1440 m 3/8 3/8 - - -
Fr, 07.05. 14:00 1380 m 7/8 2/8 - - -
Fr, 07.05. 8:00 270 m 7/8 7/8 - - -
Fr, 07.05. 2:00 1500 m 8/8 8/8 - - -
Do, 06.05. 20:00 2700 m 7/8 7/8 - - -
Do, 06.05. 14:00 1380 m 7/8 7/8 - - -
Ortszeit Bedeckungsgrad in Achtel und Wolkenuntergrenze
Sa, 08.05. 9:00 5(5700m)
Sa, 08.05. 8:50 5(5700m)
Sa, 08.05. 8:40 4(5400m) 5(12000m)
Sa, 08.05. 8:30 1(5100m) 2(12000m)
Sa, 08.05. 8:20 1(5100m) 2(12000m)
Sa, 08.05. 8:10 1(5700m)
Sa, 08.05. 8:00 1(5700m)
Sa, 08.05. 7:30 keine Wolken
Sa, 08.05. 7:00 keine Wolken
Sa, 08.05. 6:30 keine Wolken
Sa, 08.05. 6:00 4(1500m) 5(1800m)
Ortszeit Luftdruck NN (hPa) Tendenz (hPa in 3 Std.)
Sa, 08.05. 8:00 1020 + 0,6
Sa, 08.05. 2:00 1020 + 0,8
Fr, 07.05. 20:00 1017 + 2,1
Fr, 07.05. 14:00 1012 + 1,7
Fr, 07.05. 8:00 1008 + 1,8
Fr, 07.05. 2:00 1005 - 0,4
Do, 06.05. 20:00 1005 - 1,4
Do, 06.05. 14:00 1008 - 0,4
Ortszeit Luftdruck NN (hPa) Tendenz (hPa in 3 Std.)
Sa, 08.05. 9:00 1020 + 0,6
Sa, 08.05. 8:50 1020 keine Meldung
Sa, 08.05. 8:40 1020 keine Meldung
Sa, 08.05. 8:30 1020 + 0,7
Sa, 08.05. 8:20 1020 keine Meldung
Sa, 08.05. 8:10 1020 keine Meldung
Sa, 08.05. 8:00 1020 + 0,6
Sa, 08.05. 7:30 1020 + 0,5
Sa, 08.05. 7:00 1020 + 0,4
Sa, 08.05. 6:30 1020 + 0,2
Sa, 08.05. 6:00 1020 - 0,1
Ortszeit Schneehöhe (cm)
Sa, 08.05. 8:00 0
Sa, 08.05. 2:00 0
Fr, 07.05. 20:00 0
Fr, 07.05. 14:00 0
Fr, 07.05. 8:00 0
Fr, 07.05. 2:00 0
Do, 06.05. 20:00 0
Do, 06.05. 14:00 0
Ortszeit Schneehöhe (cm)
Sa, 08.05. 9:00 0
Sa, 08.05. 8:50 0
Sa, 08.05. 8:40 0
Sa, 08.05. 8:30 0
Sa, 08.05. 8:20 0
Sa, 08.05. 8:10 0
Sa, 08.05. 8:00 0
Sa, 08.05. 7:30 0
Sa, 08.05. 7:00 0
Sa, 08.05. 6:30 0
Sa, 08.05. 6:00 0
Link zu dieser Seite / Seite empfehlen

Das Wetter in ...